Time;durP1;ratioP1;P1;durP2;ratioP2;P2;SDS_P1;SDS_P2;PMS_P1;PMS_P2;Temp;Humidity;BMP_temperature;BMP_pressure;BME280_temperature;BME280_humidity;BME280_pressure;Samples;Min_cycle;Max_cycle;Signal;HPM_P1;HPM_P2
2023/09/09 00:01:28;;;;;;;6.47;4.18;;;;;;;16.46;81.63;100742.63;4918450;29;20047;-68
2023/09/09 00:04:32;;;;;;;8.25;4.38;;;;;;;16.45;81.51;100737.47;4918524;29;20522;-67
2023/09/09 00:07:37;;;;;;;10.05;4.97;;;;;;;16.46;81.37;100737.38;4919186;29;20115;-67
2023/09/09 00:10:40;;;;;;;7.38;4.60;;;;;;;16.37;81.67;100735.41;4919096;29;20360;-67
2023/09/09 00:13:45;;;;;;;9.95;4.30;;;;;;;16.35;81.46;100734.66;4918674;29;20429;-67
2023/09/09 00:16:49;;;;;;;11.05;4.47;;;;;;;16.32;81.42;100740.16;4918561;29;20046;-67
2023/09/09 00:19:52;;;;;;;7.63;4.70;;;;;;;16.30;81.50;100731.50;4918487;29;20475;-67
2023/09/09 00:22:56;;;;;;;7.93;4.55;;;;;;;16.21;81.60;100737.47;4918422;29;20051;-67
2023/09/09 00:26:00;;;;;;;9.00;4.80;;;;;;;16.23;81.66;100735.53;4918505;29;20411;-68
2023/09/09 00:29:03;;;;;;;8.73;5.18;;;;;;;16.23;81.35;100740.81;4918937;29;20122;-67
2023/09/09 00:32:06;;;;;;;11.25;4.70;;;;;;;16.10;82.08;100727.66;4918854;29;20063;-67
2023/09/09 00:35:10;;;;;;;6.53;4.50;;;;;;;16.07;82.35;100727.06;4918311;29;20051;-67
2023/09/09 00:38:13;;;;;;;6.70;4.53;;;;;;;16.02;82.54;100720.31;4906805;29;20119;-67
2023/09/09 00:41:18;;;;;;;6.18;4.78;;;;;;;16.06;82.40;100720.94;4906524;29;20102;-67
2023/09/09 00:44:24;;;;;;;9.88;4.68;;;;;;;16.08;81.56;100724.31;4918066;29;20566;-67
2023/09/09 00:47:27;;;;;;;10.30;4.85;;;;;;;16.07;81.21;100719.13;4918353;29;20103;-67
2023/09/09 00:50:31;;;;;;;11.13;4.25;;;;;;;15.94;81.73;100725.28;4918235;29;20047;-67
2023/09/09 00:53:34;;;;;;;8.18;4.55;;;;;;;15.96;81.73;100723.41;4918174;29;20426;-67
2023/09/09 00:56:38;;;;;;;10.95;5.40;;;;;;;15.87;81.83;100718.78;4918159;29;20482;-67
2023/09/09 00:59:41;;;;;;;8.48;4.82;;;;;;;15.76;82.22;100716.06;4918360;29;20111;-67
2023/09/09 01:02:44;;;;;;;8.15;4.50;;;;;;;15.79;82.43;100724.63;4906444;29;20075;-67
2023/09/09 01:05:49;;;;;;;14.13;4.93;;;;;;;15.81;82.03;100722.69;4917620;29;20078;-67
2023/09/09 01:08:52;;;;;;;8.15;4.35;;;;;;;15.81;81.75;100725.31;4917812;29;20096;-67
2023/09/09 01:11:56;;;;;;;10.43;5.15;;;;;;;15.78;81.74;100722.06;4906357;29;20083;-68
2023/09/09 01:14:59;;;;;;;8.63;4.82;;;;;;;15.73;82.01;100721.53;4917708;29;20051;-67
2023/09/09 01:18:03;;;;;;;6.90;4.68;;;;;;;15.67;82.19;100717.56;4912917;29;20083;-67
2023/09/09 01:21:11;;;;;;;7.72;4.97;;;;;;;15.69;82.03;100720.91;4917774;29;20546;-67
2023/09/09 01:24:19;;;;;;;8.65;4.35;;;;;;;15.64;82.36;100722.19;4917791;29;20139;-67
2023/09/09 01:27:22;;;;;;;10.13;4.18;;;;;;;15.61;82.70;100725.88;4895359;29;20058;-68
2023/09/09 01:30:25;;;;;;;7.88;4.40;;;;;;;15.63;82.52;100725.75;4917506;29;20044;-68
2023/09/09 01:33:29;;;;;;;8.38;4.82;;;;;;;15.56;82.45;100727.97;4917542;29;20047;-67
2023/09/09 01:36:32;;;;;;;5.45;4.40;;;;;;;15.49;82.76;100730.19;4916569;29;20641;-68
2023/09/09 01:39:36;;;;;;;7.30;4.63;;;;;;;15.52;82.68;100731.78;4917571;29;20127;-68
2023/09/09 01:42:40;;;;;;;7.60;4.78;;;;;;;15.58;82.04;100732.19;4905757;29;20051;-67
2023/09/09 01:45:45;;;;;;;6.40;4.57;;;;;;;15.47;82.47;100728.59;4905527;29;20083;-67
2023/09/09 01:48:48;;;;;;;7.10;4.47;;;;;;;15.53;82.00;100726.38;4917029;29;20051;-67
2023/09/09 01:51:52;;;;;;;9.45;4.57;;;;;;;15.45;82.13;100728.72;4905684;29;20512;-67
2023/09/09 01:54:55;;;;;;;;;;;;;;;15.44;82.16;100736.72;4905001;29;20095;-67
2023/09/09 01:57:59;;;;;;;7.95;4.47;;;;;;;15.37;82.25;100730.19;4917130;29;20014;-67
2023/09/09 02:01:03;;;;;;;8.00;4.68;;;;;;;15.39;82.22;100723.88;4917021;29;20051;-67
2023/09/09 02:04:06;;;;;;;12.93;4.45;;;;;;;15.28;82.57;100724.63;4904972;29;20086;-67
2023/09/09 02:07:09;;;;;;;6.90;4.50;;;;;;;15.26;82.82;100725.69;4916854;29;20107;-67
2023/09/09 02:10:13;;;;;;;9.40;5.10;;;;;;;15.27;82.71;100730.00;4904207;29;20115;-66
2023/09/09 02:13:16;;;;;;;7.35;4.07;;;;;;;15.25;82.98;100732.75;4902073;29;20055;-67
2023/09/09 02:16:20;;;;;;;7.38;5.00;;;;;;;15.23;82.99;100729.38;4904924;29;20119;-67
2023/09/09 02:19:24;;;;;;;9.25;5.07;;;;;;;15.20;83.06;100731.38;4916618;29;20630;-67
2023/09/09 02:22:28;;;;;;;6.53;4.20;;;;;;;15.25;82.78;100727.47;4916518;29;20072;-67
2023/09/09 02:25:32;;;;;;;11.18;4.57;;;;;;;15.23;82.69;100726.72;4916922;29;20112;-67
2023/09/09 02:28:36;;;;;;;7.63;4.25;;;;;;;15.19;82.75;100732.28;4904898;29;20067;-67
2023/09/09 02:31:40;;;;;;;8.20;4.82;;;;;;;15.17;82.99;100724.50;4916898;29;20051;-67
2023/09/09 02:34:44;;;;;;;6.07;4.80;;;;;;;15.22;82.73;100726.81;4916489;29;20534;-67
2023/09/09 02:37:47;;;;;;;6.15;4.70;;;;;;;15.08;83.16;100731.25;4904762;29;20411;-68
2023/09/09 02:40:51;;;;;;;9.95;4.75;;;;;;;15.13;82.67;100735.38;4916650;29;20046;-67
2023/09/09 02:43:54;;;;;;;9.38;4.63;;;;;;;15.12;82.63;100734.50;4905175;29;20542;-68
2023/09/09 02:46:57;;;;;;;6.78;4.45;;;;;;;15.14;82.46;100731.78;4904322;29;20043;-68
2023/09/09 02:50:01;;;;;;;9.30;4.72;;;;;;;15.17;82.81;100729.78;4916478;29;20052;-68
2023/09/09 02:53:04;;;;;;;7.15;4.50;;;;;;;15.05;83.46;100728.81;4916790;29;20090;-68
2023/09/09 02:56:08;;;;;;;6.70;4.75;;;;;;;15.12;83.01;100734.50;4904504;29;20459;-67
2023/09/09 02:59:11;;;;;;;;;;;;;;;15.18;82.98;100738.53;4916773;29;20047;-68
2023/09/09 03:02:14;;;;;;;12.75;4.78;;;;;;;15.16;83.55;100740.44;4904683;29;19922;-67
2023/09/09 03:05:20;;;;;;;13.95;5.43;;;;;;;15.13;84.24;100738.00;4916221;29;20043;-67
2023/09/09 03:08:26;;;;;;;12.88;5.53;;;;;;;15.11;84.55;100736.31;4904796;29;20518;-67
2023/09/09 03:11:29;;;;;;;15.55;5.10;;;;;;;15.05;84.52;100736.72;4915644;29;20051;-67
2023/09/09 03:14:33;;;;;;;12.15;5.28;;;;;;;15.04;84.53;100739.47;4904318;29;20586;-67
2023/09/09 03:17:36;;;;;;;8.38;4.93;;;;;;;14.98;85.01;100734.59;4916302;29;20166;-67
2023/09/09 03:20:40;;;;;;;8.80;5.75;;;;;;;14.84;85.77;100735.53;4904354;29;20143;-67
2023/09/09 03:23:43;;;;;;;7.75;4.95;;;;;;;14.83;85.83;100736.47;4916332;29;20055;-66
2023/09/09 03:26:47;;;;;;;11.13;5.68;;;;;;;14.74;86.42;100729.19;4904465;29;20095;-66
2023/09/09 03:29:51;;;;;;;11.48;5.30;;;;;;;14.75;86.27;100733.53;4904190;29;20046;-66
2023/09/09 03:32:54;;;;;;;13.40;5.80;;;;;;;14.83;85.75;100732.03;4904131;29;20047;-66
2023/09/09 03:35:58;;;;;;;8.93;5.30;;;;;;;14.87;85.42;100732.72;4904122;29;20054;-67
2023/09/09 03:39:21;;;;;;;7.07;5.45;;;;;;;14.80;85.49;100728.78;4901526;29;20051;-68
2023/09/09 03:42:26;;;;;;;11.55;5.35;;;;;;;14.81;85.49;100735.75;4904081;29;20157;-71
2023/09/09 03:45:33;;;;;;;12.93;5.55;;;;;;;14.79;85.68;100730.56;4915999;29;20039;-69
2023/09/09 03:48:40;;;;;;;10.30;5.35;;;;;;;14.75;85.59;100738.78;4904202;29;20051;-68
2023/09/09 03:51:46;;;;;;;10.93;5.20;;;;;;;14.61;86.55;100737.91;4904047;29;20051;-66
2023/09/09 03:54:49;;;;;;;9.15;5.88;;;;;;;14.67;86.41;100739.28;4903771;29;20051;-66
2023/09/09 03:57:52;;;;;;;11.18;6.30;;;;;;;14.73;85.73;100735.41;4903972;29;20051;-66
2023/09/09 04:01:07;;;;;;;10.25;5.95;;;;;;;14.64;86.35;100735.06;4907455;29;20115;-66
2023/09/09 04:04:11;;;;;;;8.60;5.57;;;;;;;14.59;86.48;100739.78;4906841;29;20099;-66
2023/09/09 04:07:14;;;;;;;11.13;5.78;;;;;;;14.64;86.07;100740.34;4918137;29;20100;-66
2023/09/09 04:10:18;;;;;;;8.38;5.93;;;;;;;14.64;85.98;100737.72;4918893;29;20047;-66
2023/09/09 04:13:21;;;;;;;15.15;6.50;;;;;;;14.58;86.05;100748.63;4906923;29;20516;-66
2023/09/09 04:16:25;;;;;;;8.30;5.78;;;;;;;14.57;85.92;100744.28;4917768;29;20051;-66
2023/09/09 04:19:28;;;;;;;15.95;6.88;;;;;;;14.56;85.98;100744.41;4906541;29;20055;-66
2023/09/09 04:22:31;;;;;;;12.23;5.90;;;;;;;14.55;85.89;100743.56;4906243;29;20517;-66
2023/09/09 04:25:35;;;;;;;11.43;6.57;;;;;;;14.48;86.39;100742.22;4906266;29;20043;-66
2023/09/09 04:28:40;;;;;;;8.38;6.32;;;;;;;14.52;86.22;100743.78;4899477;29;20047;-66
2023/09/09 04:31:43;;;;;;;11.57;6.75;;;;;;;14.47;86.75;100742.34;4906219;29;20535;-66
2023/09/09 04:34:50;;;;;;;10.38;6.07;;;;;;;14.32;87.35;100737.13;4917898;29;20047;-66
2023/09/09 04:37:53;;;;;;;7.22;5.95;;;;;;;14.44;86.97;100740.75;4917948;29;20133;-67
2023/09/09 04:40:56;;;;;;;8.32;5.97;;;;;;;14.37;87.35;100747.34;4917404;29;20047;-67
2023/09/09 04:44:00;;;;;;;10.10;5.80;;;;;;;14.36;86.95;100738.63;4906408;29;20051;-66
2023/09/09 04:47:03;;;;;;;9.00;5.90;;;;;;;14.40;87.13;100745.38;4918519;29;20191;-66
2023/09/09 04:50:07;;;;;;;9.18;6.30;;;;;;;14.30;87.49;100748.69;4918223;29;20569;-66
2023/09/09 04:53:10;;;;;;;9.93;6.40;;;;;;;14.29;87.82;100754.88;4916937;29;20051;-66
2023/09/09 04:56:15;;;;;;;10.13;5.75;;;;;;;14.36;86.99;100750.94;4903614;29;20066;-66
2023/09/09 04:59:19;;;;;;;11.18;6.93;;;;;;;14.33;86.88;100756.41;4916686;29;20047;-66
2023/09/09 05:02:22;;;;;;;8.52;5.57;;;;;;;14.31;86.55;100755.66;4916326;29;20387;-69
2023/09/09 05:05:26;;;;;;;7.82;5.22;;;;;;;14.27;86.85;100759.41;4905456;29;20063;-67
2023/09/09 05:08:30;;;;;;;7.70;5.65;;;;;;;14.28;86.67;100761.09;4898654;29;20088;-66
2023/09/09 05:11:33;;;;;;;8.60;5.70;;;;;;;13.94;89.35;100763.22;4885417;29;20219;-76
2023/09/09 05:14:36;;;;;;;6.25;5.25;;;;;;;13.90;89.60;100767.00;4885671;29;20100;-73
2023/09/09 05:17:40;;;;;;;12.25;5.60;;;;;;;13.93;89.67;100764.16;4897036;29;20160;-73
2023/09/09 05:20:44;;;;;;;10.68;5.85;;;;;;;14.04;89.18;100764.34;4884668;29;20054;-75
2023/09/09 05:23:48;;;;;;;8.95;6.25;;;;;;;14.05;89.01;100770.44;4887747;29;20058;-75
2023/09/09 05:26:51;;;;;;;9.98;5.85;;;;;;;14.08;88.70;100767.63;4916022;29;20051;-76
2023/09/09 05:29:54;;;;;;;12.40;5.97;;;;;;;14.17;87.98;100765.25;4904146;29;20054;-72
2023/09/09 05:32:58;;;;;;;8.23;5.53;;;;;;;14.27;87.10;100769.94;4893451;29;20055;-67
2023/09/09 05:36:01;;;;;;;6.70;5.57;;;;;;;14.12;87.59;100767.31;4915673;29;20044;-72
2023/09/09 05:39:04;;;;;;;9.68;5.40;;;;;;;14.09;87.46;100775.41;4916043;29;20074;-72
2023/09/09 05:42:08;;;;;;;9.60;6.32;;;;;;;14.19;87.14;100771.25;4915767;29;20183;-72
2023/09/09 05:45:11;;;;;;;8.25;5.03;;;;;;;14.11;87.80;100781.44;4903570;29;20059;-66
2023/09/09 05:48:16;;;;;;;8.65;5.43;;;;;;;14.21;86.68;100775.59;4903686;29;20143;-66
2023/09/09 05:51:19;;;;;;;5.65;4.65;;;;;;;14.21;86.21;100778.22;4903598;29;20100;-66
2023/09/09 05:54:22;;;;;;;8.82;5.20;;;;;;;14.28;85.96;100784.78;4891102;29;20059;-65
2023/09/09 05:57:27;;;;;;;7.28;4.00;;;;;;;14.32;85.71;100784.47;4896724;29;20145;-67
2023/09/09 06:00:51;;;;;;;5.40;4.57;;;;;;;14.30;86.11;100782.91;4883503;29;20059;-68
2023/09/09 06:03:56;;;;;;;6.60;5.22;;;;;;;14.36;85.42;100785.13;4904649;29;20132;-66
2023/09/09 06:07:01;;;;;;;9.52;4.57;;;;;;;14.34;85.96;100789.66;4897117;29;20131;-66
2023/09/09 06:10:05;;;;;;;5.70;4.25;;;;;;;14.36;86.69;100785.97;4887279;29;20063;-66
2023/09/09 06:13:08;;;;;;;9.38;4.20;;;;;;;14.39;86.83;100790.22;4884294;29;20094;-67
2023/09/09 06:16:15;;;;;;;5.78;4.32;;;;;;;14.37;87.10;100794.72;4884779;29;20070;-67
2023/09/09 06:19:20;;;;;;;5.28;3.88;;;;;;;14.43;86.71;100797.78;4884017;29;20147;-66
2023/09/09 06:22:27;;;;;;;6.85;4.40;;;;;;;14.47;86.74;100793.16;4896692;29;20124;-66
2023/09/09 06:29:50;;;;;;;8.77;4.57;;;;;;;14.70;87.04;100796.13;4905260;29;20039;-66
2023/09/09 06:32:54;;;;;;;5.15;3.85;;;;;;;14.76;87.14;100803.63;4899898;29;20047;-66
2023/09/09 06:35:57;;;;;;;8.88;3.55;;;;;;;14.79;86.81;100806.91;4895514;29;20069;-66
2023/09/09 06:39:03;;;;;;;5.80;4.78;;;;;;;14.86;87.07;100809.97;4897888;29;20132;-66
2023/09/09 06:42:06;;;;;;;5.40;4.55;;;;;;;14.81;87.65;100812.09;4894670;29;20569;-67
2023/09/09 06:45:12;;;;;;;10.45;5.03;;;;;;;14.92;87.00;100801.69;4891357;29;20119;-67
2023/09/09 06:48:17;;;;;;;6.82;4.82;;;;;;;14.99;86.86;100799.47;4892670;29;20056;-67
2023/09/09 06:51:29;;;;;;;6.75;5.15;;;;;;;15.09;87.02;100811.97;4895494;29;20107;-66
2023/09/09 06:54:33;;;;;;;10.45;5.30;;;;;;;15.20;86.74;100810.38;4895245;29;20173;-67
2023/09/09 06:57:37;;;;;;;6.95;4.68;;;;;;;15.26;87.50;100807.34;4901443;29;20051;-66
2023/09/09 07:00:42;;;;;;;5.57;4.57;;;;;;;15.23;88.61;100803.13;4895507;29;20438;-66
2023/09/09 07:03:49;;;;;;;8.10;5.30;;;;;;;14.98;90.47;100811.81;4888111;29;20119;-68
2023/09/09 07:07:13;;;;;;;6.28;4.43;;;;;;;15.15;89.93;100805.41;4900174;29;20047;-67
2023/09/09 07:10:16;;;;;;;5.50;4.70;;;;;;;15.41;88.92;100811.59;4914433;29;20038;-66
2023/09/09 07:13:22;;;;;;;5.05;4.40;;;;;;;15.61;88.08;100801.47;4913169;29;20071;-66
2023/09/09 07:16:40;;;;;;;5.72;4.25;;;;;;;15.80;88.18;100804.53;4902295;29;20060;-66
2023/09/09 07:19:46;;;;;;;5.05;4.03;;;;;;;15.84;89.41;100802.53;4914694;29;20051;-66
2023/09/09 07:22:56;;;;;;;7.55;4.82;;;;;;;16.06;88.88;100802.72;4911690;29;20096;-67
2023/09/09 07:26:07;;;;;;;6.15;4.35;;;;;;;16.29;87.83;100790.50;4909674;29;20137;-67
2023/09/09 07:29:18;;;;;;;5.25;4.47;;;;;;;16.40;87.39;100806.44;4902217;29;20047;-66
2023/09/09 07:32:25;;;;;;;7.05;4.03;;;;;;;16.54;87.48;100801.94;4902980;29;20119;-67
2023/09/09 07:35:31;;;;;;;9.38;4.88;;;;;;;16.67;87.03;100800.09;4918344;29;20091;-67
2023/09/09 07:38:40;;;;;;;5.82;5.22;;;;;;;16.76;87.28;100802.09;4918659;29;20059;-68
2023/09/09 07:41:44;;;;;;;9.77;5.43;;;;;;;16.85;87.94;100801.41;4918218;29;20535;-68
2023/09/09 07:44:53;;;;;;;7.10;4.97;;;;;;;17.01;88.24;100793.19;4917544;29;20058;-68
2023/09/09 07:47:59;;;;;;;8.27;5.50;;;;;;;17.12;88.96;100789.72;4918146;29;20047;-67
2023/09/09 07:51:02;;;;;;;7.57;5.38;;;;;;;17.24;89.06;100785.31;4918125;29;20051;-66
2023/09/09 07:54:06;;;;;;;8.15;6.05;;;;;;;17.36;88.52;100785.22;4918085;29;20051;-67
2023/09/09 07:57:10;;;;;;;6.90;5.13;;;;;;;17.51;88.42;100790.28;4917254;29;20271;-67
2023/09/09 08:00:13;;;;;;;8.85;5.68;;;;;;;17.56;88.39;100793.41;4915360;29;20134;-67
2023/09/09 08:03:17;;;;;;;8.05;5.75;;;;;;;17.56;88.89;100796.06;4916672;29;20504;-67
2023/09/09 08:06:20;;;;;;;7.90;5.70;;;;;;;17.72;88.73;100796.56;4916664;29;20410;-66
2023/09/09 08:09:23;;;;;;;6.18;4.93;;;;;;;17.84;88.23;100787.69;4916359;29;20130;-68
2023/09/09 08:12:27;;;;;;;9.73;5.28;;;;;;;17.92;87.63;100802.13;4917584;29;20039;-66
2023/09/09 08:15:31;;;;;;;11.85;5.43;;;;;;;18.04;87.36;100787.91;4917241;29;20050;-67
2023/09/09 08:18:35;;;;;;;12.15;5.18;;;;;;;18.19;87.27;100789.34;4917373;29;20466;-67
2023/09/09 08:21:39;;;;;;;9.43;5.85;;;;;;;18.31;86.72;100791.03;4905954;29;20103;-66
2023/09/09 08:24:42;;;;;;;9.57;5.40;;;;;;;18.42;85.73;100790.13;4917748;29;20190;-67
2023/09/09 08:27:46;;;;;;;9.93;5.78;;;;;;;18.50;86.69;100782.41;4917891;29;20131;-67
2023/09/09 08:31:16;;;;;;;9.40;5.70;;;;;;;18.60;85.63;100782.47;4917380;29;20050;-68
2023/09/09 08:34:20;;;;;;;7.40;5.30;;;;;;;18.70;85.01;100788.72;4905651;29;20054;-67
2023/09/09 08:37:23;;;;;;;8.90;5.20;;;;;;;18.78;85.33;100786.31;4917266;29;20059;-67
2023/09/09 08:40:27;;;;;;;8.60;4.97;;;;;;;18.89;84.43;100787.22;4917211;29;20099;-67
2023/09/09 08:44:11;;;;;;;9.13;5.03;;;;;;;18.98;83.30;100786.47;4916888;29;20103;-67
2023/09/09 08:47:19;;;;;;;7.10;5.68;;;;;;;19.09;83.64;100789.06;4917015;29;20070;-67
2023/09/09 08:50:25;;;;;;;6.20;4.82;;;;;;;19.20;82.29;100780.19;4917493;29;20066;-67
2023/09/09 08:53:37;;;;;;;6.10;5.28;;;;;;;19.26;82.60;100785.00;4916612;29;20059;-69
2023/09/09 08:56:43;;;;;;;8.50;5.40;;;;;;;19.41;81.10;100780.19;4916890;29;20107;-67
2023/09/09 08:59:48;;;;;;;7.80;5.32;;;;;;;19.49;81.15;100778.56;4917478;29;20419;-67
2023/09/09 09:02:52;;;;;;;8.60;5.10;;;;;;;19.58;80.52;100768.97;4905257;29;20107;-67
2023/09/09 09:05:58;;;;;;;8.88;5.13;;;;;;;19.70;80.23;100770.59;4894476;29;20446;-67
2023/09/09 09:09:01;;;;;;;10.30;5.70;;;;;;;19.81;79.36;100768.81;4912477;29;20094;-67
2023/09/09 09:12:08;;;;;;;12.57;5.40;;;;;;;19.88;79.18;100770.81;4915814;29;20055;-67
2023/09/09 09:15:12;;;;;;;10.70;5.93;;;;;;;20.07;77.95;100770.03;4915325;29;20043;-66
2023/09/09 09:18:16;;;;;;;12.18;5.50;;;;;;;20.17;77.88;100770.06;4907137;29;20514;-65
2023/09/09 09:21:25;;;;;;;7.47;4.88;;;;;;;20.33;77.27;100765.06;4903882;29;20567;-66
2023/09/09 09:24:50;;;;;;;6.00;4.60;;;;;;;20.48;75.67;100762.81;4907391;29;20159;-66
2023/09/09 09:28:22;;;;;;;8.63;4.45;;;;;;;20.67;75.65;100762.88;4905949;29;20088;-67
2023/09/09 09:31:41;;;;;;;8.85;4.70;;;;;;;20.77;74.70;100756.72;4903096;29;20099;-68
2023/09/09 09:34:50;;;;;;;7.07;5.10;;;;;;;20.83;74.30;100756.16;4898553;29;20127;-66
2023/09/09 09:38:06;;;;;;;6.60;4.75;;;;;;;20.93;74.62;100751.69;4906126;29;20087;-66
2023/09/09 09:41:09;;;;;;;6.50;4.75;;;;;;;21.13;72.95;100748.00;4896078;29;20116;-66
2023/09/09 09:44:20;;;;;;;7.15;4.82;;;;;;;21.33;73.16;100747.97;4906620;29;20459;-65
2023/09/09 09:47:24;;;;;;;9.75;5.20;;;;;;;21.38;72.84;100745.75;4904927;29;20039;-67
2023/09/09 09:50:32;;;;;;;10.98;5.47;;;;;;;21.43;73.28;100739.97;4904790;29;20107;-68
2023/09/09 09:53:59;;;;;;;10.32;5.03;;;;;;;21.63;72.21;100735.41;4906068;29;20051;-66
2023/09/09 09:57:04;;;;;;;7.85;4.50;;;;;;;21.75;71.24;100735.09;4902009;29;20428;-66
2023/09/09 10:00:09;;;;;;;6.55;4.75;;;;;;;21.75;71.83;100736.91;4904059;29;20446;-65
2023/09/09 10:03:18;;;;;;;11.57;5.18;;;;;;;21.98;71.51;100738.19;4905926;29;20047;-66
2023/09/09 10:06:27;;;;;;;10.60;4.60;;;;;;;22.29;70.03;100735.22;4903159;29;20040;-67
2023/09/09 10:09:58;;;;;;;10.25;5.07;;;;;;;22.42;70.69;100735.69;4901919;29;20077;-67
2023/09/09 10:13:06;;;;;;;5.93;4.25;;;;;;;22.56;69.73;100737.00;4885557;29;20104;-67
2023/09/09 10:16:12;;;;;;;7.80;4.55;;;;;;;22.58;68.39;100735.00;4904121;29;20099;-67
2023/09/09 10:19:17;;;;;;;6.43;4.57;;;;;;;22.69;68.46;100725.94;4900819;29;20063;-66
2023/09/09 10:22:21;;;;;;;11.27;5.05;;;;;;;22.58;69.13;100735.00;4906063;29;20098;-67
2023/09/09 10:25:26;;;;;;;8.43;4.88;;;;;;;22.63;70.37;100726.56;4914380;29;20055;-67
2023/09/09 10:28:31;;;;;;;9.95;4.90;;;;;;;22.80;69.92;100720.34;4915114;29;20090;-66
2023/09/09 10:31:36;;;;;;;8.80;4.28;;;;;;;22.94;69.13;100719.84;4915173;29;20162;-67
2023/09/09 10:34:41;;;;;;;7.72;4.72;;;;;;;23.28;68.19;100715.53;4915093;29;20046;-66
2023/09/09 10:37:46;;;;;;;6.68;4.78;;;;;;;23.49;67.76;100712.50;4914966;29;20171;-67
2023/09/09 10:40:51;;;;;;;6.25;4.63;;;;;;;23.53;67.56;100709.34;4915108;29;20138;-67
2023/09/09 10:43:54;;;;;;;14.63;4.72;;;;;;;23.55;66.49;100701.19;4914202;29;20046;-67
2023/09/09 10:46:58;;;;;;;5.93;4.30;;;;;;;23.30;66.79;100701.06;4915608;29;20083;-67
2023/09/09 10:50:05;;;;;;;6.50;4.40;;;;;;;23.26;67.26;100702.38;4903077;29;20114;-68
2023/09/09 10:53:24;;;;;;;7.28;5.00;;;;;;;23.41;68.76;100697.25;4903011;29;20055;-67
2023/09/09 10:56:27;;;;;;;9.75;4.13;;;;;;;23.69;67.04;100697.09;4914682;29;20055;-68
2023/09/09 10:59:32;;;;;;;7.22;4.82;;;;;;;24.08;66.45;100697.38;4914684;29;20414;-69
2023/09/09 11:02:48;;;;;;;7.95;4.78;;;;;;;23.89;65.63;100693.16;4915367;29;20051;-77
2023/09/09 11:06:05;;;;;;;9.00;4.53;;;;;;;23.89;66.11;100688.63;4914798;29;20075;-69
2023/09/09 11:09:13;;;;;;;7.88;4.65;;;;;;;24.25;67.48;100693.75;4918125;29;20127;-69
2023/09/09 11:12:25;;;;;;;;;;;;;;;24.48;65.78;100699.28;4905911;29;20529;-68
2023/09/09 11:15:52;;;;;;;6.85;4.57;;;;;;;24.67;63.74;100687.44;4907443;29;20022;-68
2023/09/09 11:18:57;;;;;;;6.50;4.22;;;;;;;24.66;65.07;100685.75;4918203;29;20431;-65
2023/09/09 11:22:04;;;;;;;11.05;5.05;;;;;;;24.63;65.02;100682.56;4918761;29;20118;-65
2023/09/09 11:25:14;;;;;;;8.85;4.07;;;;;;;24.45;65.45;100685.44;4918714;29;20207;-65
2023/09/09 11:28:18;;;;;;;8.88;4.53;;;;;;;24.57;66.48;100681.44;4918523;29;20415;-67
2023/09/09 11:31:23;;;;;;;11.60;4.90;;;;;;;24.63;65.57;100682.56;4918824;29;20059;-72
2023/09/09 11:34:32;;;;;;;9.52;4.05;;;;;;;24.69;65.07;100684.56;4918568;29;20063;-63
2023/09/09 11:37:38;;;;;;;8.30;4.32;;;;;;;24.90;64.83;100682.22;4919019;29;20455;-64
2023/09/09 11:40:44;;;;;;;11.20;4.25;;;;;;;24.95;63.12;100681.69;4917835;29;20088;-64
2023/09/09 11:44:03;;;;;;;8.55;4.22;;;;;;;24.88;63.34;100684.22;4917470;29;20050;-63
2023/09/09 11:47:10;;;;;;;11.13;4.88;;;;;;;24.88;64.11;100680.72;4917373;29;20047;-64
2023/09/09 11:50:16;;;;;;;8.20;3.90;;;;;;;25.18;64.79;100674.69;4914514;29;20059;-65
2023/09/09 11:53:23;;;;;;;8.70;5.10;;;;;;;25.14;64.37;100676.00;4917770;29;20483;-64
2023/09/09 11:56:26;;;;;;;7.50;4.55;;;;;;;25.35;62.43;100666.59;4917530;29;20225;-65
2023/09/09 11:59:30;;;;;;;10.77;4.72;;;;;;;25.38;60.96;100666.25;4918484;29;20051;-66
2023/09/09 12:02:33;;;;;;;7.80;4.18;;;;;;;25.24;61.84;100668.63;4917341;29;20430;-67
2023/09/09 12:05:37;;;;;;;4.93;4.05;;;;;;;25.41;63.12;100660.53;4917221;29;20046;-66
2023/09/09 12:08:43;;;;;;;7.38;4.07;;;;;;;25.50;63.70;100662.19;4916219;29;20199;-65
2023/09/09 12:11:46;;;;;;;14.25;5.22;;;;;;;25.59;62.83;100660.28;4916795;29;20047;-64
2023/09/09 12:14:53;;;;;;;9.18;4.35;;;;;;;25.79;60.86;100655.34;4917496;29;20151;-64
2023/09/09 12:17:56;;;;;;;10.43;5.00;;;;;;;26.10;59.58;100658.00;4917030;29;20108;-68
2023/09/09 12:21:24;;;;;;;9.05;4.80;;;;;;;26.35;58.48;100666.69;4916804;29;20104;-65
2023/09/09 12:24:42;;;;;;;7.93;4.20;;;;;;;26.67;57.53;100655.75;4917672;29;20518;-65
2023/09/09 12:27:49;;;;;;;6.43;4.30;;;;;;;27.05;56.56;100655.66;4917592;29;20122;-64
2023/09/09 12:30:58;;;;;;;5.90;4.00;;;;;;;27.63;57.28;100653.16;4917477;29;20054;-65
2023/09/09 12:34:02;;;;;;;13.70;4.80;;;;;;;27.92;54.85;100652.28;4917097;29;20115;-65
2023/09/09 12:37:06;;;;;;;8.05;4.70;;;;;;;28.26;56.16;100653.44;4905837;29;20059;-65
2023/09/09 12:40:11;;;;;;;5.55;4.22;;;;;;;28.49;53.63;100647.88;4898930;29;20051;-65
2023/09/09 12:43:17;;;;;;;11.00;5.68;;;;;;;28.68;51.49;100654.44;4906308;29;20084;-66
2023/09/09 12:46:27;;;;;;;7.53;4.43;;;;;;;28.67;51.20;100653.59;4908202;29;20087;-64
2023/09/09 12:49:31;;;;;;;6.50;4.45;;;;;;;27.89;52.38;100649.97;4881959;29;20051;-65
2023/09/09 12:52:35;;;;;;;8.20;4.38;;;;;;;27.93;53.68;100661.19;4906251;29;20056;-65
2023/09/09 12:55:42;;;;;;;6.72;4.80;;;;;;;29.17;52.89;100649.00;4907809;29;20047;-65
2023/09/09 12:58:46;;;;;;;7.75;4.22;;;;;;;29.48;51.11;100639.59;4903703;29;20055;-65
2023/09/09 13:01:50;;;;;;;9.55;4.75;;;;;;;29.71;47.91;100642.00;4892017;29;20406;-66
2023/09/09 13:04:53;;;;;;;7.75;4.85;;;;;;;30.37;46.39;100643.16;4905387;29;20188;-67
2023/09/09 13:07:56;;;;;;;7.80;4.53;;;;;;;30.72;46.54;100630.25;4906378;29;20042;-66
2023/09/09 13:11:07;;;;;;;10.25;4.55;;;;;;;31.10;45.96;100633.13;4907410;29;20367;-66
2023/09/09 13:14:12;;;;;;;6.55;4.13;;;;;;;31.30;45.88;100624.09;4904982;29;20048;-66
2023/09/09 13:17:15;;;;;;;5.15;4.00;;;;;;;32.05;44.11;100627.09;4898837;29;20080;-65
2023/09/09 13:20:20;;;;;;;11.75;6.00;;;;;;;32.10;42.68;100622.69;4915747;29;20094;-69
2023/09/09 13:23:24;;;;;;;19.02;9.82;;;;;;;32.65;41.32;100616.63;4915852;29;20077;-66
2023/09/09 13:26:27;;;;;;;32.78;19.48;;;;;;;33.20;39.98;100626.69;4912785;29;20258;-65
2023/09/09 13:29:33;;;;;;;31.15;15.57;;;;;;;35.29;35.07;100623.78;4913850;29;20046;-69
2023/09/09 13:32:37;;;;;;;13.65;8.02;;;;;;;38.09;32.12;100623.50;4914883;29;20054;-69
2023/09/09 13:35:40;;;;;;;17.83;8.30;;;;;;;40.33;27.92;100613.72;4915031;29;20150;-70
2023/09/09 13:38:46;;;;;;;17.83;11.10;;;;;;;40.28;27.07;100613.75;4916036;29;20043;-71
2023/09/09 13:41:50;;;;;;;12.57;7.18;;;;;;;42.93;23.47;100606.56;4904388;29;20585;-70
2023/09/09 13:45:02;;;;;;;10.20;5.93;;;;;;;44.38;22.60;100604.09;4915152;29;20080;-69
2023/09/09 13:48:05;;;;;;;10.40;7.80;;;;;;;45.83;20.67;100596.00;4915819;29;20459;-70
2023/09/09 13:51:10;;;;;;;11.90;5.95;;;;;;;45.45;20.85;100598.28;4913452;29;20087;-70
2023/09/09 13:54:13;;;;;;;12.70;7.03;;;;;;;44.71;21.01;100593.00;4913780;29;20098;-70
2023/09/09 13:57:16;;;;;;;9.75;4.90;;;;;;;43.67;21.59;100586.03;4916158;29;20402;-71
2023/09/09 14:00:20;;;;;;;10.25;5.35;;;;;;;44.89;19.13;100583.78;4897364;29;20059;-71
2023/09/09 14:03:23;;;;;;;10.85;5.80;;;;;;;47.04;18.50;100583.84;4897061;29;20099;-70
2023/09/09 14:06:27;;;;;;;11.13;4.80;;;;;;;47.48;17.92;100581.91;4897227;29;20136;-70
2023/09/09 14:09:31;;;;;;;12.55;4.05;;;;;;;46.19;18.30;100578.47;4897581;29;20510;-70
2023/09/09 14:12:36;;;;;;;9.25;3.67;;;;;;;43.53;19.54;100570.28;4897173;29;20472;-69
2023/09/09 14:15:39;;;;;;;12.77;4.32;;;;;;;46.57;17.86;100569.72;4906461;29;20058;-69
2023/09/09 14:18:43;;;;;;;9.65;3.83;;;;;;;44.56;20.02;100570.09;4904097;29;20589;-69
2023/09/09 14:21:47;;;;;;;5.95;3.70;;;;;;;47.58;17.36;100564.97;4915540;29;20561;-70
2023/09/09 14:24:50;;;;;;;11.02;5.57;;;;;;;48.07;17.52;100559.16;4915624;29;20051;-69
2023/09/09 14:27:54;;;;;;;7.03;4.68;;;;;;;47.23;18.01;100564.16;4915952;29;20054;-68